DAL125 KMSP-KBIS
Flight info
| Callsign | DAL125 |
|---|---|
| Flight time | 1h 14m |
| Altitude | 38000 |
| Route | KBREW2 FAR |
| Aircraft | A20N/M-SDE2E3FGHIRWXY/LB1 |
Departure
| Time | 2026-04-14 12:48 |
|---|---|
| Airport | Minneapolis–Saint Paul International Airport / Wold–Chamberlain Field (KMSP) |
Arrival
| Time | 2026-04-14 14:02 |
|---|---|
| Airport | Bismarck Municipal Airport (KBIS) |
| Time | Latitude | Longitude | Altitude | Speed | Heading |
|---|---|---|---|---|---|
| 2026-04-14 12:32 | 44.87889 | -93.20665 | 836 ft | 0 kts | 31° |
| 2026-04-14 12:39 | 44.87872 | -93.20679 | 832 ft | 4 kts | 33° |
| 2026-04-14 12:40 | 44.87851 | -93.20700 | 829 ft | 4 kts | 44° |
| 2026-04-14 12:40 | 44.87836 | -93.20728 | 837 ft | 4 kts | 89° |
| 2026-04-14 12:40 | 44.87838 | -93.20742 | 837 ft | 1 kts | 122° |
| 2026-04-14 12:45 | 44.87815 | -93.20689 | 831 ft | 7 kts | 124° |
| 2026-04-14 12:45 | 44.87779 | -93.20636 | 828 ft | 8 kts | 153° |
| 2026-04-14 12:45 | 44.87714 | -93.20630 | 835 ft | 11 kts | 155° |
| 2026-04-14 12:45 | 44.87663 | -93.20534 | 829 ft | 15 kts | 120° |
| 2026-04-14 12:46 | 44.87604 | -93.20399 | 829 ft | 16 kts | 122° |
| 2026-04-14 12:46 | 44.87553 | -93.20280 | 826 ft | 15 kts | 121° |
| 2026-04-14 12:46 | 44.87495 | -93.20151 | 825 ft | 15 kts | 122° |
| 2026-04-14 12:46 | 44.87447 | -93.20085 | 830 ft | 8 kts | 170° |
| 2026-04-14 12:47 | 44.87397 | -93.20119 | 830 ft | 9 kts | 234° |
| 2026-04-14 12:47 | 44.87395 | -93.20211 | 828 ft | 10 kts | 285° |
| 2026-04-14 12:47 | 44.87429 | -93.20308 | 826 ft | 16 kts | 298° |
| 2026-04-14 12:47 | 44.87550 | -93.20591 | 828 ft | 60 kts | 301° |
| 2026-04-14 12:48 | 44.87893 | -93.21377 | 831 ft | 130 kts | 302° |
| 2026-04-14 12:48 | 44.88446 | -93.22614 | 1240 ft | 154 kts | 304° |
| 2026-04-14 12:48 | 44.89330 | -93.23427 | 1856 ft | 158 kts | 352° |
| 2026-04-14 12:48 | 44.90427 | -93.23472 | 2488 ft | 168 kts | 355° |
| 2026-04-14 12:49 | 44.91722 | -93.23668 | 2881 ft | 203 kts | 346° |
| 2026-04-14 12:49 | 44.93206 | -93.24228 | 3204 ft | 239 kts | 338° |
| 2026-04-14 12:49 | 44.94843 | -93.25086 | 3829 ft | 257 kts | 335° |
| 2026-04-14 12:49 | 44.96525 | -93.26072 | 4664 ft | 266 kts | 333° |
| 2026-04-14 12:50 | 44.98248 | -93.27125 | 5552 ft | 272 kts | 332° |
| 2026-04-14 12:50 | 45.01726 | -93.29296 | 7516 ft | 276 kts | 332° |
| 2026-04-14 12:50 | 45.03484 | -93.30402 | 8606 ft | 278 kts | 331° |
| 2026-04-14 12:51 | 45.05256 | -93.31521 | 9708 ft | 279 kts | 330° |
| 2026-04-14 12:51 | 45.07065 | -93.32669 | 10476 ft | 292 kts | 329° |
| 2026-04-14 12:51 | 45.08979 | -93.33895 | 11010 ft | 311 kts | 329° |
| 2026-04-14 12:51 | 45.10984 | -93.35175 | 11821 ft | 319 kts | 329° |
| 2026-04-14 12:52 | 45.12950 | -93.36614 | 12764 ft | 318 kts | 320° |
| 2026-04-14 12:52 | 45.14645 | -93.38561 | 13726 ft | 312 kts | 306° |
| 2026-04-14 12:52 | 45.15935 | -93.41000 | 14584 ft | 310 kts | 295° |
| 2026-04-14 12:52 | 45.17015 | -93.43657 | 15443 ft | 312 kts | 292° |
| 2026-04-14 12:53 | 45.18059 | -93.46364 | 16310 ft | 315 kts | 292° |
| 2026-04-14 12:53 | 45.19102 | -93.49080 | 17169 ft | 318 kts | 291° |
| 2026-04-14 12:53 | 45.20173 | -93.51856 | 18023 ft | 322 kts | 291° |
| 2026-04-14 12:53 | 45.21257 | -93.54654 | 18754 ft | 326 kts | 291° |
| 2026-04-14 12:54 | 45.22355 | -93.57484 | 19456 ft | 330 kts | 291° |
| 2026-04-14 12:54 | 45.23471 | -93.60358 | 20156 ft | 334 kts | 291° |
| 2026-04-14 12:54 | 45.24601 | -93.63267 | 20858 ft | 338 kts | 291° |
| 2026-04-14 12:54 | 45.25743 | -93.66210 | 21557 ft | 342 kts | 291° |
| 2026-04-14 12:55 | 45.26896 | -93.69181 | 22236 ft | 345 kts | 291° |
| 2026-04-14 12:55 | 45.28060 | -93.72186 | 22905 ft | 349 kts | 291° |
| 2026-04-14 12:55 | 45.29234 | -93.75219 | 23534 ft | 353 kts | 291° |
| 2026-04-14 12:55 | 45.30408 | -93.78255 | 24078 ft | 356 kts | 291° |
| 2026-04-14 12:56 | 45.31214 | -93.80338 | 24469 ft | 357 kts | 290° |
| 2026-04-14 12:56 | 45.32813 | -93.84481 | 25213 ft | 359 kts | 290° |
| 2026-04-14 12:56 | 45.34004 | -93.87571 | 25741 ft | 361 kts | 290° |
| 2026-04-14 12:56 | 45.34821 | -93.89691 | 26095 ft | 362 kts | 289° |
| 2026-04-14 12:57 | 45.36433 | -93.93882 | 26772 ft | 365 kts | 289° |
| 2026-04-14 12:57 | 45.37651 | -93.97054 | 27269 ft | 367 kts | 289° |
| 2026-04-14 12:57 | 45.38878 | -94.00250 | 27746 ft | 369 kts | 289° |
| 2026-04-14 12:57 | 45.39712 | -94.02427 | 28058 ft | 370 kts | 289° |
| 2026-04-14 12:58 | 45.40948 | -94.05655 | 28507 ft | 372 kts | 288° |
| 2026-04-14 12:58 | 45.42175 | -94.08864 | 28954 ft | 375 kts | 288° |
| 2026-04-14 12:58 | 45.43422 | -94.12128 | 29396 ft | 377 kts | 288° |
| 2026-04-14 12:58 | 45.44672 | -94.15404 | 29813 ft | 379 kts | 288° |
| 2026-04-14 12:59 | 45.45933 | -94.18714 | 30168 ft | 381 kts | 288° |
| 2026-04-14 12:59 | 45.47199 | -94.22041 | 30512 ft | 383 kts | 288° |
| 2026-04-14 12:59 | 45.48475 | -94.25397 | 30842 ft | 385 kts | 288° |
| 2026-04-14 12:59 | 45.49753 | -94.28762 | 31178 ft | 387 kts | 288° |
| 2026-04-14 13:00 | 45.51033 | -94.32132 | 31610 ft | 386 kts | 288° |
| 2026-04-14 13:00 | 45.52307 | -94.35487 | 32071 ft | 384 kts | 288° |
| 2026-04-14 13:00 | 45.53581 | -94.38848 | 32512 ft | 383 kts | 288° |
| 2026-04-14 13:00 | 45.54848 | -94.42195 | 32903 ft | 383 kts | 288° |
| 2026-04-14 13:01 | 45.56108 | -94.45532 | 33303 ft | 382 kts | 288° |
| 2026-04-14 13:01 | 45.57373 | -94.48879 | 33671 ft | 383 kts | 288° |
| 2026-04-14 13:01 | 45.58752 | -94.52144 | 33979 ft | 389 kts | 293° |
| 2026-04-14 13:01 | 45.60326 | -94.55309 | 34292 ft | 392 kts | 295° |
| 2026-04-14 13:02 | 45.61934 | -94.58407 | 34603 ft | 392 kts | 295° |
| 2026-04-14 13:02 | 45.63566 | -94.61534 | 34803 ft | 394 kts | 295° |
| 2026-04-14 13:02 | 45.65203 | -94.64678 | 34830 ft | 395 kts | 295° |
| 2026-04-14 13:03 | 45.68476 | -94.70974 | 34832 ft | 394 kts | 295° |
| 2026-04-14 13:03 | 45.71733 | -94.77265 | 34830 ft | 394 kts | 295° |
| 2026-04-14 13:04 | 45.74991 | -94.83579 | 34837 ft | 394 kts | 295° |
| 2026-04-14 13:04 | 45.78230 | -94.89868 | 34833 ft | 394 kts | 295° |
| 2026-04-14 13:05 | 45.81506 | -94.96244 | 34830 ft | 394 kts | 295° |
| 2026-04-14 13:05 | 45.84732 | -95.02537 | 34824 ft | 394 kts | 295° |
| 2026-04-14 13:06 | 45.87984 | -95.08896 | 34825 ft | 394 kts | 295° |
| 2026-04-14 13:06 | 45.91239 | -95.15221 | 34827 ft | 394 kts | 297° |
| 2026-04-14 13:07 | 45.94491 | -95.21521 | 34823 ft | 393 kts | 297° |
| 2026-04-14 13:07 | 45.97730 | -95.27864 | 34818 ft | 392 kts | 297° |
| 2026-04-14 13:08 | 46.00948 | -95.34205 | 34822 ft | 392 kts | 297° |
| 2026-04-14 13:08 | 46.04134 | -95.40502 | 34829 ft | 392 kts | 297° |
| 2026-04-14 13:09 | 46.07342 | -95.46860 | 34831 ft | 392 kts | 297° |
| 2026-04-14 13:09 | 46.10545 | -95.53222 | 34836 ft | 392 kts | 297° |
| 2026-04-14 13:10 | 46.13736 | -95.59574 | 34849 ft | 392 kts | 297° |
| 2026-04-14 13:10 | 46.16932 | -95.65952 | 34849 ft | 392 kts | 297° |
| 2026-04-14 13:11 | 46.20110 | -95.72307 | 34851 ft | 392 kts | 297° |
| 2026-04-14 13:11 | 46.23321 | -95.78743 | 34848 ft | 393 kts | 297° |
| 2026-04-14 13:12 | 46.26517 | -95.85164 | 34849 ft | 393 kts | 297° |
| 2026-04-14 13:12 | 46.29693 | -95.91558 | 34852 ft | 394 kts | 297° |
| 2026-04-14 13:13 | 46.32888 | -95.98007 | 34853 ft | 395 kts | 297° |
| 2026-04-14 13:13 | 46.36093 | -96.04491 | 34852 ft | 395 kts | 297° |
| 2026-04-14 13:14 | 46.39295 | -96.10983 | 34852 ft | 396 kts | 297° |
| 2026-04-14 13:14 | 46.42498 | -96.17491 | 34852 ft | 396 kts | 297° |
| 2026-04-14 13:15 | 46.45693 | -96.23999 | 34853 ft | 397 kts | 297° |
| 2026-04-14 13:15 | 46.48899 | -96.30552 | 34852 ft | 404 kts | 297° |
| 2026-04-14 13:16 | 46.52205 | -96.37332 | 34849 ft | 419 kts | 297° |
| 2026-04-14 13:16 | 46.55633 | -96.44365 | 34849 ft | 430 kts | 298° |
| 2026-04-14 13:17 | 46.59088 | -96.51458 | 34851 ft | 428 kts | 298° |
| 2026-04-14 13:17 | 46.62522 | -96.58531 | 34851 ft | 427 kts | 298° |
| 2026-04-14 13:18 | 46.65948 | -96.65613 | 34851 ft | 427 kts | 298° |
| 2026-04-14 13:18 | 46.69361 | -96.72688 | 34852 ft | 427 kts | 298° |
| 2026-04-14 13:19 | 46.72746 | -96.79722 | 34849 ft | 426 kts | 298° |
| 2026-04-14 13:19 | 46.75086 | -96.87386 | 34850 ft | 406 kts | 274° |
| 2026-04-14 13:20 | 46.75170 | -96.95530 | 34841 ft | 402 kts | 265° |
| 2026-04-14 13:20 | 46.74963 | -97.03691 | 34846 ft | 402 kts | 265° |
| 2026-04-14 13:21 | 46.74765 | -97.11847 | 34844 ft | 402 kts | 265° |
| 2026-04-14 13:21 | 46.74573 | -97.19961 | 34525 ft | 401 kts | 265° |
| 2026-04-14 13:21 | 46.74476 | -97.24035 | 34289 ft | 401 kts | 265° |
| 2026-04-14 13:22 | 46.74378 | -97.28090 | 34054 ft | 401 kts | 265° |
| 2026-04-14 13:22 | 46.74280 | -97.32129 | 33815 ft | 393 kts | 265° |
| 2026-04-14 13:22 | 46.74185 | -97.36048 | 33552 ft | 381 kts | 265° |
| 2026-04-14 13:22 | 46.74091 | -97.39862 | 33288 ft | 370 kts | 265° |
| 2026-04-14 13:23 | 46.73998 | -97.43565 | 33018 ft | 360 kts | 265° |
| 2026-04-14 13:23 | 46.73906 | -97.47131 | 32760 ft | 355 kts | 265° |
| 2026-04-14 13:23 | 46.73812 | -97.50714 | 32493 ft | 353 kts | 265° |
| 2026-04-14 13:23 | 46.73717 | -97.54300 | 32227 ft | 352 kts | 265° |
| 2026-04-14 13:24 | 46.73622 | -97.57852 | 31967 ft | 350 kts | 265° |
| 2026-04-14 13:24 | 46.73430 | -97.64901 | 31448 ft | 346 kts | 264° |
| 2026-04-14 13:24 | 46.73334 | -97.68400 | 31196 ft | 344 kts | 264° |
| 2026-04-14 13:25 | 46.73237 | -97.71870 | 30942 ft | 343 kts | 264° |
| 2026-04-14 13:25 | 46.73139 | -97.75339 | 30693 ft | 341 kts | 264° |
| 2026-04-14 13:26 | 46.72851 | -97.85462 | 29961 ft | 320 kts | 264° |
| 2026-04-14 13:26 | 46.72759 | -97.88626 | 29683 ft | 312 kts | 264° |
| 2026-04-14 13:26 | 46.72666 | -97.91745 | 29391 ft | 304 kts | 264° |
| 2026-04-14 13:26 | 46.72575 | -97.94783 | 29118 ft | 297 kts | 264° |
| 2026-04-14 13:27 | 46.72486 | -97.97752 | 28842 ft | 290 kts | 264° |
| 2026-04-14 13:27 | 46.72397 | -98.00658 | 28563 ft | 283 kts | 264° |
| 2026-04-14 13:27 | 46.72310 | -98.03484 | 28291 ft | 277 kts | 264° |
| 2026-04-14 13:27 | 46.72224 | -98.06261 | 28018 ft | 271 kts | 264° |
| 2026-04-14 13:28 | 46.72139 | -98.08975 | 27747 ft | 266 kts | 264° |
| 2026-04-14 13:28 | 46.72055 | -98.11656 | 27482 ft | 261 kts | 264° |
| 2026-04-14 13:28 | 46.71971 | -98.14295 | 27217 ft | 260 kts | 264° |
| 2026-04-14 13:28 | 46.71886 | -98.16921 | 26958 ft | 260 kts | 264° |
| 2026-04-14 13:29 | 46.71801 | -98.19549 | 26690 ft | 260 kts | 264° |
| 2026-04-14 13:29 | 46.71716 | -98.22177 | 26423 ft | 259 kts | 264° |
| 2026-04-14 13:29 | 46.71631 | -98.24800 | 26182 ft | 259 kts | 265° |
| 2026-04-14 13:29 | 46.71545 | -98.27422 | 25930 ft | 258 kts | 265° |
| 2026-04-14 13:30 | 46.71458 | -98.30030 | 25679 ft | 258 kts | 265° |
| 2026-04-14 13:30 | 46.71372 | -98.32642 | 25432 ft | 257 kts | 265° |
| 2026-04-14 13:30 | 46.71285 | -98.35236 | 25185 ft | 257 kts | 265° |
| 2026-04-14 13:30 | 46.71198 | -98.37812 | 24944 ft | 256 kts | 265° |
| 2026-04-14 13:31 | 46.71110 | -98.40406 | 24686 ft | 256 kts | 265° |
| 2026-04-14 13:31 | 46.71021 | -98.43027 | 24452 ft | 256 kts | 265° |
| 2026-04-14 13:31 | 46.70933 | -98.45573 | 24216 ft | 255 kts | 265° |
| 2026-04-14 13:31 | 46.70844 | -98.48156 | 23980 ft | 255 kts | 265° |
| 2026-04-14 13:32 | 46.70755 | -98.50734 | 23744 ft | 254 kts | 265° |
| 2026-04-14 13:32 | 46.70665 | -98.53300 | 23512 ft | 254 kts | 265° |
| 2026-04-14 13:32 | 46.70574 | -98.55871 | 23247 ft | 253 kts | 265° |
| 2026-04-14 13:32 | 46.70484 | -98.58430 | 22972 ft | 252 kts | 265° |
| 2026-04-14 13:33 | 46.70393 | -98.60970 | 22696 ft | 251 kts | 265° |
| 2026-04-14 13:33 | 46.70302 | -98.63512 | 22424 ft | 250 kts | 265° |
| 2026-04-14 13:33 | 46.70210 | -98.66040 | 22156 ft | 249 kts | 265° |
| 2026-04-14 13:33 | 46.70119 | -98.68561 | 21886 ft | 248 kts | 265° |
| 2026-04-14 13:34 | 46.69937 | -98.73517 | 21363 ft | 246 kts | 265° |
| 2026-04-14 13:34 | 46.69845 | -98.76006 | 21094 ft | 245 kts | 265° |
| 2026-04-14 13:34 | 46.69753 | -98.78474 | 20850 ft | 244 kts | 266° |
| 2026-04-14 13:35 | 46.69661 | -98.80935 | 20599 ft | 243 kts | 266° |
| 2026-04-14 13:35 | 46.69569 | -98.83379 | 20343 ft | 241 kts | 266° |
| 2026-04-14 13:35 | 46.69476 | -98.85824 | 20093 ft | 240 kts | 266° |
| 2026-04-14 13:35 | 46.69384 | -98.88254 | 19842 ft | 239 kts | 266° |
| 2026-04-14 13:36 | 46.69291 | -98.90662 | 19591 ft | 238 kts | 266° |
| 2026-04-14 13:36 | 46.69199 | -98.93070 | 19343 ft | 237 kts | 266° |
| 2026-04-14 13:36 | 46.69106 | -98.95470 | 19111 ft | 237 kts | 266° |
| 2026-04-14 13:36 | 46.69013 | -98.97861 | 18872 ft | 236 kts | 266° |
| 2026-04-14 13:37 | 46.68921 | -99.00218 | 18633 ft | 232 kts | 266° |
| 2026-04-14 13:37 | 46.68829 | -99.02540 | 18308 ft | 232 kts | 266° |
| 2026-04-14 13:37 | 46.68736 | -99.04882 | 17968 ft | 232 kts | 266° |
| 2026-04-14 13:37 | 46.68643 | -99.07225 | 17627 ft | 231 kts | 266° |
| 2026-04-14 13:38 | 46.68550 | -99.09550 | 17301 ft | 230 kts | 266° |
| 2026-04-14 13:38 | 46.68457 | -99.11864 | 16975 ft | 228 kts | 267° |
| 2026-04-14 13:38 | 46.68364 | -99.14158 | 16577 ft | 225 kts | 267° |
| 2026-04-14 13:38 | 46.68272 | -99.16428 | 16122 ft | 224 kts | 267° |
| 2026-04-14 13:39 | 46.68180 | -99.18685 | 15687 ft | 223 kts | 268° |
| 2026-04-14 13:39 | 46.68088 | -99.20937 | 15261 ft | 221 kts | 268° |
| 2026-04-14 13:39 | 46.67996 | -99.23166 | 14846 ft | 219 kts | 268° |
| 2026-04-14 13:39 | 46.67905 | -99.25365 | 14438 ft | 218 kts | 268° |
| 2026-04-14 13:40 | 46.67813 | -99.27568 | 14035 ft | 216 kts | 268° |
| 2026-04-14 13:40 | 46.67753 | -99.29013 | 13778 ft | 215 kts | 269° |
| 2026-04-14 13:40 | 46.67662 | -99.31175 | 13341 ft | 214 kts | 269° |
| 2026-04-14 13:40 | 46.67572 | -99.33329 | 12879 ft | 213 kts | 269° |
| 2026-04-14 13:41 | 46.67481 | -99.35479 | 12429 ft | 212 kts | 269° |
| 2026-04-14 13:41 | 46.67390 | -99.37631 | 11988 ft | 212 kts | 269° |
| 2026-04-14 13:41 | 46.67299 | -99.39765 | 11556 ft | 211 kts | 269° |
| 2026-04-14 13:41 | 46.67208 | -99.41890 | 11180 ft | 207 kts | 269° |
| 2026-04-14 13:42 | 46.67119 | -99.43909 | 10983 ft | 193 kts | 270° |
| 2026-04-14 13:42 | 46.67035 | -99.45827 | 10745 ft | 188 kts | 270° |
| 2026-04-14 13:42 | 46.66954 | -99.47709 | 10505 ft | 189 kts | 270° |
| 2026-04-14 13:42 | 46.66872 | -99.49621 | 10264 ft | 189 kts | 270° |
| 2026-04-14 13:43 | 46.66790 | -99.51523 | 10010 ft | 187 kts | 270° |
| 2026-04-14 13:43 | 46.66708 | -99.53411 | 9686 ft | 187 kts | 270° |
| 2026-04-14 13:43 | 46.66625 | -99.55309 | 9313 ft | 188 kts | 270° |
| 2026-04-14 13:43 | 46.66542 | -99.57201 | 8956 ft | 188 kts | 270° |
| 2026-04-14 13:44 | 46.66457 | -99.59101 | 8607 ft | 187 kts | 270° |
| 2026-04-14 13:44 | 46.66373 | -99.60992 | 8269 ft | 187 kts | 270° |
| 2026-04-14 13:44 | 46.66288 | -99.62891 | 7934 ft | 187 kts | 270° |
| 2026-04-14 13:44 | 46.66204 | -99.64774 | 7605 ft | 187 kts | 270° |
| 2026-04-14 13:45 | 46.66119 | -99.66659 | 7271 ft | 187 kts | 270° |
| 2026-04-14 13:45 | 46.66034 | -99.68536 | 7010 ft | 186 kts | 270° |
| 2026-04-14 13:45 | 46.65950 | -99.70397 | 6771 ft | 186 kts | 271° |
| 2026-04-14 13:45 | 46.65864 | -99.72278 | 6523 ft | 186 kts | 271° |
| 2026-04-14 13:46 | 46.65778 | -99.74156 | 6360 ft | 186 kts | 271° |
| 2026-04-14 13:46 | 46.65692 | -99.76036 | 6235 ft | 186 kts | 271° |
| 2026-04-14 13:46 | 46.65607 | -99.77914 | 6106 ft | 186 kts | 271° |
| 2026-04-14 13:46 | 46.65521 | -99.79783 | 5976 ft | 185 kts | 270° |
| 2026-04-14 13:47 | 46.65434 | -99.81654 | 5848 ft | 185 kts | 270° |
| 2026-04-14 13:47 | 46.65348 | -99.83517 | 5717 ft | 184 kts | 270° |
| 2026-04-14 13:47 | 46.65261 | -99.85373 | 5586 ft | 183 kts | 270° |
| 2026-04-14 13:47 | 46.65175 | -99.87220 | 5467 ft | 183 kts | 270° |
| 2026-04-14 13:48 | 46.65088 | -99.89095 | 5320 ft | 195 kts | 270° |
| 2026-04-14 13:48 | 46.64996 | -99.91122 | 5155 ft | 204 kts | 270° |
| 2026-04-14 13:48 | 46.64898 | -99.93175 | 5019 ft | 202 kts | 269° |
| 2026-04-14 13:48 | 46.64800 | -99.95206 | 4892 ft | 200 kts | 269° |
| 2026-04-14 13:49 | 46.64702 | -99.97233 | 4763 ft | 200 kts | 269° |
| 2026-04-14 13:49 | 46.64605 | -99.99273 | 4647 ft | 206 kts | 269° |
| 2026-04-14 13:49 | 46.64505 | -100.01371 | 4515 ft | 209 kts | 269° |
| 2026-04-14 13:49 | 46.64403 | -100.03481 | 4382 ft | 209 kts | 269° |
| 2026-04-14 13:50 | 46.64300 | -100.05595 | 4246 ft | 208 kts | 269° |
| 2026-04-14 13:50 | 46.64198 | -100.07697 | 4115 ft | 211 kts | 269° |
| 2026-04-14 13:50 | 46.64092 | -100.09907 | 3924 ft | 225 kts | 268° |
| 2026-04-14 13:50 | 46.63981 | -100.12194 | 3617 ft | 228 kts | 268° |
| 2026-04-14 13:51 | 46.63867 | -100.14487 | 3467 ft | 226 kts | 268° |
| 2026-04-14 13:51 | 46.63754 | -100.16761 | 3363 ft | 221 kts | 268° |
| 2026-04-14 13:51 | 46.63645 | -100.18910 | 3366 ft | 205 kts | 268° |
| 2026-04-14 13:51 | 46.63543 | -100.20932 | 3374 ft | 197 kts | 268° |
| 2026-04-14 13:52 | 46.63444 | -100.22920 | 3374 ft | 197 kts | 268° |
| 2026-04-14 13:52 | 46.63345 | -100.24911 | 3370 ft | 198 kts | 268° |
| 2026-04-14 13:52 | 46.63247 | -100.26842 | 3391 ft | 182 kts | 268° |
| 2026-04-14 13:52 | 46.63157 | -100.28575 | 3378 ft | 163 kts | 268° |
| 2026-04-14 13:53 | 46.63077 | -100.30113 | 3353 ft | 145 kts | 268° |
| 2026-04-14 13:53 | 46.63056 | -100.31554 | 3380 ft | 142 kts | 277° |
| 2026-04-14 13:53 | 46.63161 | -100.33059 | 3376 ft | 157 kts | 278° |
| 2026-04-14 13:53 | 46.63282 | -100.34690 | 3366 ft | 167 kts | 278° |
| 2026-04-14 13:54 | 46.63401 | -100.36387 | 3360 ft | 170 kts | 277° |
| 2026-04-14 13:54 | 46.63519 | -100.38108 | 3362 ft | 171 kts | 278° |
| 2026-04-14 13:54 | 46.63636 | -100.39828 | 3360 ft | 170 kts | 278° |
| 2026-04-14 13:54 | 46.63753 | -100.41535 | 3355 ft | 171 kts | 278° |
| 2026-04-14 13:55 | 46.63872 | -100.43258 | 3351 ft | 171 kts | 277° |
| 2026-04-14 13:55 | 46.63990 | -100.44974 | 3352 ft | 171 kts | 277° |
| 2026-04-14 13:55 | 46.64107 | -100.46678 | 3339 ft | 163 kts | 278° |
| 2026-04-14 13:55 | 46.64217 | -100.48228 | 3353 ft | 148 kts | 278° |
| 2026-04-14 13:56 | 46.64324 | -100.49680 | 3346 ft | 140 kts | 278° |
| 2026-04-14 13:56 | 46.64424 | -100.51067 | 3357 ft | 141 kts | 278° |
| 2026-04-14 13:56 | 46.64529 | -100.52487 | 3348 ft | 139 kts | 278° |
| 2026-04-14 13:56 | 46.64631 | -100.53887 | 3345 ft | 137 kts | 278° |
| 2026-04-14 13:57 | 46.64729 | -100.55248 | 3342 ft | 136 kts | 278° |
| 2026-04-14 13:57 | 46.64831 | -100.56636 | 3342 ft | 139 kts | 278° |
| 2026-04-14 13:57 | 46.65061 | -100.57978 | 3339 ft | 136 kts | 297° |
| 2026-04-14 13:57 | 46.65604 | -100.59128 | 3357 ft | 142 kts | 312° |
| 2026-04-14 13:58 | 46.66301 | -100.60127 | 3375 ft | 136 kts | 317° |
| 2026-04-14 13:58 | 46.66981 | -100.61024 | 3391 ft | 129 kts | 317° |
| 2026-04-14 13:58 | 46.67646 | -100.61902 | 3391 ft | 129 kts | 317° |
| 2026-04-14 13:58 | 46.68314 | -100.62790 | 3391 ft | 130 kts | 317° |
| 2026-04-14 13:59 | 46.68983 | -100.63679 | 3392 ft | 130 kts | 317° |
| 2026-04-14 13:59 | 46.69651 | -100.64566 | 3391 ft | 130 kts | 317° |
| 2026-04-14 13:59 | 46.70324 | -100.65458 | 3379 ft | 131 kts | 317° |
| 2026-04-14 13:59 | 46.70995 | -100.66349 | 3235 ft | 130 kts | 317° |
| 2026-04-14 14:00 | 46.71664 | -100.67239 | 3050 ft | 130 kts | 316° |
| 2026-04-14 14:00 | 46.72323 | -100.68118 | 2869 ft | 130 kts | 316° |
| 2026-04-14 14:00 | 46.72989 | -100.69001 | 2665 ft | 129 kts | 316° |
| 2026-04-14 14:00 | 46.73649 | -100.69878 | 2480 ft | 129 kts | 316° |
| 2026-04-14 14:01 | 46.74309 | -100.70754 | 2304 ft | 128 kts | 316° |
| 2026-04-14 14:01 | 46.74968 | -100.71629 | 2116 ft | 128 kts | 316° |
| 2026-04-14 14:01 | 46.75622 | -100.72499 | 1947 ft | 127 kts | 316° |
| 2026-04-14 14:01 | 46.76277 | -100.73369 | 1783 ft | 127 kts | 316° |
| 2026-04-14 14:02 | 46.76927 | -100.74230 | 1689 ft | 124 kts | 319° |
| 2026-04-14 14:02 | 46.77561 | -100.75063 | 1661 ft | 104 kts | 317° |
| 2026-04-14 14:02 | 46.77949 | -100.75588 | 1676 ft | 67 kts | 315° |
| 2026-04-14 14:02 | 46.78247 | -100.75984 | 1673 ft | 38 kts | 319° |
| 2026-04-14 14:03 | 46.78355 | -100.76183 | 1669 ft | 11 kts | 268° |
| 2026-04-14 14:03 | 46.78323 | -100.76272 | 1672 ft | 10 kts | 227° |
| 2026-04-14 14:03 | 46.78267 | -100.76351 | 1666 ft | 10 kts | 212° |
| 2026-04-14 14:03 | 46.78237 | -100.76339 | 1672 ft | 5 kts | 151° |
| 2026-04-14 14:04 | 46.78198 | -100.76304 | 1670 ft | 8 kts | 148° |
| 2026-04-14 14:04 | 46.78153 | -100.76244 | 1663 ft | 10 kts | 136° |
| 2026-04-14 14:04 | 46.78104 | -100.76173 | 1666 ft | 10 kts | 135° |
| 2026-04-14 14:04 | 46.78055 | -100.76102 | 1664 ft | 10 kts | 135° |
| 2026-04-14 14:05 | 46.77998 | -100.76024 | 1678 ft | 12 kts | 138° |
| 2026-04-14 14:05 | 46.77935 | -100.75942 | 1665 ft | 12 kts | 138° |
| 2026-04-14 14:05 | 46.77872 | -100.75862 | 1674 ft | 12 kts | 139° |
| 2026-04-14 14:05 | 46.77804 | -100.75767 | 1674 ft | 15 kts | 135° |
| 2026-04-14 14:06 | 46.77726 | -100.75665 | 1676 ft | 16 kts | 139° |
| 2026-04-14 14:06 | 46.77648 | -100.75629 | 1671 ft | 10 kts | 178° |
| 2026-04-14 14:06 | 46.77594 | -100.75671 | 1667 ft | 8 kts | 224° |
| 2026-04-14 14:06 | 46.77571 | -100.75706 | 1670 ft | 0 kts | 226° |